Time;durP1;ratioP1;P1;durP2;ratioP2;P2;SDS_P1;SDS_P2;PMS_P1;PMS_P2;Temp;Humidity;BMP_temperature;BMP_pressure;BME280_temperature;BME280_humidity;BME280_pressure;Samples;Min_cycle;Max_cycle;Signal;HPM_P1;HPM_P2
2024/01/12 00:00:00;;;;;;;14.90;3.85;;;;;;;;;;5096488;28;20016;-27
2024/01/12 00:02:25;;;;;;;19.40;3.90;;;;;;;;;;5096650;28;20061;-27
2024/01/12 00:04:50;;;;;;;12.97;3.63;;;;;;;;;;5096237;28;20388;-28
2024/01/12 00:07:16;;;;;;;16.48;3.13;;;;;;;;;;5096326;28;20258;-27
2024/01/12 00:09:42;;;;;;;19.27;3.50;;;;;;;;;;5096405;28;20027;-28
2024/01/12 00:12:07;;;;;;;18.33;3.55;;;;;;;;;;5096536;28;20258;-28
2024/01/12 00:14:32;;;;;;;16.40;3.55;;;;;;;;;;5096351;28;20080;-28
2024/01/12 00:16:57;;;;;;;15.67;3.87;;;;;;;;;;5096051;28;20027;-27
2024/01/12 00:19:23;;;;;;;22.00;3.77;;;;;;;;;;5096105;28;20323;-27
2024/01/12 00:21:48;;;;;;;14.00;2.93;;;;;;;;;;5096082;28;20242;-27
2024/01/12 00:24:13;;;;;;;13.65;3.20;;;;;;;;;;5096023;28;20261;-28
2024/01/12 00:26:38;;;;;;;16.05;2.78;;;;;;;;;;5095897;28;20020;-27
2024/01/12 00:29:04;;;;;;;16.23;3.00;;;;;;;;;;5096180;28;20023;-27
2024/01/12 00:31:29;;;;;;;14.80;2.90;;;;;;;;;;5096193;28;20459;-27
2024/01/12 00:33:54;;;;;;;12.23;3.07;;;;;;;;;;5095970;28;20017;-28
2024/01/12 00:36:19;;;;;;;18.40;3.25;;;;;;;;;;5094253;28;20265;-27
2024/01/12 00:38:44;;;;;;;16.83;2.90;;;;;;;;;;5093861;28;20436;-27
2024/01/12 00:41:10;;;;;;;12.03;2.63;;;;;;;;;;5075374;28;20482;-28
2024/01/12 00:43:35;;;;;;;14.90;2.80;;;;;;;;;;5093441;28;20298;-28
2024/01/12 00:46:02;;;;;;;12.30;3.37;;;;;;;;;;5093404;28;20258;-28
2024/01/12 00:48:27;;;;;;;15.00;3.17;;;;;;;;;;5093632;28;20292;-27
2024/01/12 00:50:52;;;;;;;15.43;2.67;;;;;;;;;;5093563;28;20051;-27
2024/01/12 00:53:17;;;;;;;11.80;3.30;;;;;;;;;;5095921;28;20099;-27
2024/01/12 00:55:42;;;;;;;12.90;2.85;;;;;;;;;;5095703;28;20012;-27
2024/01/12 00:58:08;;;;;;;11.83;3.30;;;;;;;;;;5095315;28;20020;-27
2024/01/12 01:00:33;;;;;;;13.47;2.77;;;;;;;;;;5095366;28;20325;-27
2024/01/12 01:03:01;;;;;;;10.55;2.30;;;;;;;;;;5077412;28;20262;-27
2024/01/12 01:05:26;;;;;;;12.20;2.47;;;;;;;;;;5095246;28;20040;-27
2024/01/12 01:07:52;;;;;;;15.27;2.30;;;;;;;;;;5095148;28;20344;-27
2024/01/12 01:10:17;;;;;;;17.48;3.28;;;;;;;;;;5095727;28;20333;-28
2024/01/12 01:12:42;;;;;;;7.78;2.13;;;;;;;;;;5095330;28;20482;-28
2024/01/12 01:15:07;;;;;;;20.65;2.80;;;;;;;;;;5095535;28;20015;-27
2024/01/12 01:17:32;;;;;;;15.75;2.58;;;;;;;;;;5095208;28;20016;-27
2024/01/12 01:19:58;;;;;;;12.95;2.53;;;;;;;;;;5094976;28;20012;-27
2024/01/12 01:22:23;;;;;;;12.55;2.50;;;;;;;;;;5095222;28;20029;-27
2024/01/12 01:24:49;;;;;;;13.85;2.40;;;;;;;;;;5094894;28;20024;-27
2024/01/12 01:27:14;;;;;;;11.05;2.25;;;;;;;;;;5094849;28;20028;-27
2024/01/12 01:29:39;;;;;;;14.53;2.30;;;;;;;;;;5094848;28;20104;-28
2024/01/12 01:32:04;;;;;;;18.38;3.08;;;;;;;;;;5094744;28;20257;-27
2024/01/12 01:34:29;;;;;;;11.52;2.17;;;;;;;;;;5094691;28;20478;-27
2024/01/12 01:36:58;;;;;;;13.27;2.40;;;;;;;;;;5094940;28;20035;-27
2024/01/12 01:39:23;;;;;;;13.68;2.10;;;;;;;;;;5094884;28;20329;-27
2024/01/12 01:41:49;;;;;;;12.67;2.40;;;;;;;;;;5094508;28;20043;-28
2024/01/12 01:44:14;;;;;;;12.93;2.10;;;;;;;;;;5094543;28;20251;-27
2024/01/12 01:46:39;;;;;;;14.60;2.10;;;;;;;;;;5094733;28;20254;-28
2024/01/12 01:49:05;;;;;;;15.90;2.28;;;;;;;;;;5094419;28;20325;-27
2024/01/12 01:51:30;;;;;;;12.45;2.60;;;;;;;;;;5094686;28;20023;-27
2024/01/12 01:53:55;;;;;;;18.90;3.50;;;;;;;;;;5094556;28;20027;-27
2024/01/12 01:56:22;;;;;;;16.65;2.30;;;;;;;;;;5094821;28;20519;-27
2024/01/12 01:58:47;;;;;;;16.77;2.30;;;;;;;;;;5094491;28;20020;-27
2024/01/12 02:01:13;;;;;;;11.90;2.10;;;;;;;;;;5094522;28;20019;-27
2024/01/12 02:03:41;;;;;;;10.85;2.17;;;;;;;;;;5094165;28;20553;-27
2024/01/12 02:06:07;;;;;;;9.48;2.15;;;;;;;;;;5093527;28;20048;-29
2024/01/12 02:08:32;;;;;;;13.30;2.33;;;;;;;;;;5094373;28;20031;-27
2024/01/12 02:10:58;;;;;;;15.15;2.40;;;;;;;;;;5093837;28;20379;-27
2024/01/12 02:13:23;;;;;;;13.25;2.45;;;;;;;;;;5093852;28;20028;-27
2024/01/12 02:15:48;;;;;;;13.77;2.33;;;;;;;;;;5094269;28;20016;-27
2024/01/12 02:18:14;;;;;;;17.02;2.20;;;;;;;;;;5093966;28;20016;-28
2024/01/12 02:20:39;;;;;;;18.60;2.53;;;;;;;;;;5094595;28;20047;-27
2024/01/12 02:23:05;;;;;;;15.73;2.50;;;;;;;;;;5094031;28;20352;-27
2024/01/12 02:25:30;;;;;;;10.32;2.13;;;;;;;;;;5093765;28;20024;-27
2024/01/12 02:27:55;;;;;;;19.87;2.23;;;;;;;;;;5093835;28;20467;-27
2024/01/12 02:30:20;;;;;;;11.40;2.10;;;;;;;;;;5093986;28;20288;-27
2024/01/12 02:32:45;;;;;;;13.30;2.30;;;;;;;;;;5093740;28;20054;-27
2024/01/12 02:35:11;;;;;;;12.73;2.40;;;;;;;;;;5094123;28;20102;-27
2024/01/12 02:37:36;;;;;;;11.73;2.17;;;;;;;;;;5093472;28;20598;-27
2024/01/12 02:40:01;;;;;;;14.48;2.40;;;;;;;;;;5093548;28;20250;-27
2024/01/12 02:42:26;;;;;;;13.82;2.30;;;;;;;;;;5093785;28;20020;-27
2024/01/12 02:44:51;;;;;;;11.97;2.53;;;;;;;;;;5093833;28;20023;-27
2024/01/12 02:47:17;;;;;;;7.27;2.30;;;;;;;;;;5093747;28;20329;-27
2024/01/12 02:49:43;;;;;;;9.17;2.00;;;;;;;;;;5093476;28;20602;-27
2024/01/12 02:52:08;;;;;;;16.80;2.47;;;;;;;;;;5093457;28;20274;-27
2024/01/12 02:54:33;;;;;;;13.10;2.08;;;;;;;;;;5093668;28;20031;-28
2024/01/12 02:56:58;;;;;;;15.60;2.30;;;;;;;;;;5093645;28;20092;-28
2024/01/12 02:59:23;;;;;;;9.47;2.50;;;;;;;;;;5093750;28;20044;-27
2024/01/12 03:01:49;;;;;;;17.23;2.33;;;;;;;;;;5093618;28;20281;-27
2024/01/12 03:04:14;;;;;;;10.33;2.30;;;;;;;;;;5093858;28;20250;-27
2024/01/12 03:06:39;;;;;;;12.10;2.83;;;;;;;;;;5093186;28;20713;-27
2024/01/12 03:09:04;;;;;;;7.77;2.43;;;;;;;;;;5093844;28;20020;-27
2024/01/12 03:11:30;;;;;;;21.90;2.30;;;;;;;;;;5093553;28;20604;-27
2024/01/12 03:13:55;;;;;;;11.07;2.03;;;;;;;;;;5093793;28;20059;-27
2024/01/12 03:16:21;;;;;;;11.67;2.90;;;;;;;;;;5093336;28;20024;-27
2024/01/12 03:18:49;;;;;;;9.13;2.15;;;;;;;;;;5095009;28;20242;-27
2024/01/12 03:21:15;;;;;;;12.82;2.47;;;;;;;;;;5097564;28;20535;-27
2024/01/12 03:23:40;;;;;;;12.32;2.40;;;;;;;;;;5097239;28;20012;-27
2024/01/12 03:26:06;;;;;;;10.53;2.33;;;;;;;;;;5097796;28;20091;-27
2024/01/12 03:28:32;;;;;;;7.25;2.15;;;;;;;;;;5097194;28;20257;-27
2024/01/12 03:30:57;;;;;;;15.85;2.75;;;;;;;;;;5097087;28;20077;-27
2024/01/12 03:33:22;;;;;;;14.60;2.85;;;;;;;;;;5096906;28;20412;-27
2024/01/12 03:35:47;;;;;;;11.50;2.75;;;;;;;;;;5096929;28;20532;-28
2024/01/12 03:38:13;;;;;;;8.13;2.30;;;;;;;;;;5096947;28;20020;-27
2024/01/12 03:40:38;;;;;;;14.38;2.80;;;;;;;;;;5096821;28;20254;-27
2024/01/12 03:43:03;;;;;;;7.68;2.47;;;;;;;;;;5097114;28;20016;-27
2024/01/12 03:45:28;;;;;;;10.70;2.50;;;;;;;;;;5096982;28;20103;-27
2024/01/12 03:47:53;;;;;;;14.27;2.47;;;;;;;;;;5097099;28;20331;-28
2024/01/12 03:50:19;;;;;;;13.43;2.30;;;;;;;;;;5097254;28;20262;-27
2024/01/12 03:52:44;;;;;;;11.47;2.50;;;;;;;;;;5096749;28;20703;-28
2024/01/12 03:55:09;;;;;;;9.13;2.13;;;;;;;;;;5096601;28;20273;-28
2024/01/12 03:57:34;;;;;;;5.87;2.10;;;;;;;;;;5097146;28;20261;-28
2024/01/12 04:00:00;;;;;;;12.43;2.70;;;;;;;;;;5096574;28;20243;-27
2024/01/12 04:02:25;;;;;;;9.88;2.40;;;;;;;;;;5096726;28;20266;-27
2024/01/12 04:04:50;;;;;;;9.70;2.35;;;;;;;;;;5096812;28;20082;-28
2024/01/12 04:07:15;;;;;;;12.43;2.40;;;;;;;;;;5096701;28;20519;-27
2024/01/12 04:09:41;;;;;;;6.87;2.23;;;;;;;;;;5096914;28;20024;-27
2024/01/12 04:12:06;;;;;;;10.55;2.40;;;;;;;;;;5096317;28;20750;-27
2024/01/12 04:14:32;;;;;;;9.50;2.50;;;;;;;;;;5096725;28;20102;-28
2024/01/12 04:16:57;;;;;;;20.13;3.33;;;;;;;;;;5096043;28;20034;-27
2024/01/12 04:19:22;;;;;;;12.93;2.47;;;;;;;;;;5096677;28;20245;-28
2024/01/12 04:21:47;;;;;;;11.02;2.20;;;;;;;;;;5096105;28;20246;-27
2024/01/12 04:24:12;;;;;;;12.13;2.77;;;;;;;;;;5096645;28;20028;-27
2024/01/12 04:26:37;;;;;;;12.32;2.25;;;;;;;;;;5096302;28;20733;-27
2024/01/12 04:29:03;;;;;;;10.90;2.17;;;;;;;;;;5095623;28;20020;-27
2024/01/12 04:31:28;;;;;;;8.40;3.08;;;;;;;;;;5095947;28;20711;-27
2024/01/12 04:33:54;;;;;;;11.13;2.30;;;;;;;;;;5096095;28;20028;-27
2024/01/12 04:36:24;;;;;;;8.95;2.33;;;;;;;;;;5096406;28;20095;-27
2024/01/12 04:38:50;;;;;;;8.18;2.35;;;;;;;;;;5096074;28;20023;-28
2024/01/12 04:41:15;;;;;;;13.60;2.75;;;;;;;;;;5096225;28;20530;-27
2024/01/12 04:43:40;;;;;;;11.43;2.38;;;;;;;;;;5095991;28;20043;-27
2024/01/12 04:46:05;;;;;;;11.02;2.42;;;;;;;;;;5095863;28;20027;-27
2024/01/12 04:48:30;;;;;;;10.15;2.42;;;;;;;;;;5095624;28;20028;-27
2024/01/12 04:50:56;;;;;;;7.17;2.23;;;;;;;;;;5095822;28;20016;-27
2024/01/12 04:53:21;;;;;;;10.02;2.17;;;;;;;;;;5095672;28;20294;-27
2024/01/12 04:55:46;;;;;;;9.05;2.30;;;;;;;;;;5095750;28;20095;-28
2024/01/12 04:58:12;;;;;;;12.15;2.63;;;;;;;;;;5095698;28;20043;-27
2024/01/12 05:00:37;;;;;;;5.40;2.00;;;;;;;;;;5095402;28;20044;-27
2024/01/12 05:03:02;;;;;;;9.67;2.43;;;;;;;;;;5095863;28;20098;-27
2024/01/12 05:05:27;;;;;;;10.98;2.88;;;;;;;;;;5095622;28;20286;-27
2024/01/12 05:07:52;;;;;;;9.53;2.50;;;;;;;;;;5095862;28;20017;-27
2024/01/12 05:10:18;;;;;;;10.05;2.38;;;;;;;;;;5095180;28;20266;-27
2024/01/12 05:12:43;;;;;;;12.25;2.30;;;;;;;;;;5095318;28;20065;-28
2024/01/12 05:15:08;;;;;;;10.17;2.87;;;;;;;;;;5095101;28;20379;-28
2024/01/12 05:17:33;;;;;;;14.73;2.60;;;;;;;;;;5095373;28;20254;-27
2024/01/12 05:20:06;;;;;;;9.90;2.80;;;;;;;;;;5095107;28;20437;-27
2024/01/12 05:22:31;;;;;;;12.25;3.17;;;;;;;;;;5095487;28;20728;-27
2024/01/12 05:24:56;;;;;;;14.87;3.67;;;;;;;;;;5094878;28;20020;-28
2024/01/12 05:27:21;;;;;;;8.80;3.07;;;;;;;;;;5095148;28;20285;-27
2024/01/12 05:29:47;;;;;;;9.13;3.20;;;;;;;;;;5095107;28;20254;-27
2024/01/12 05:32:12;;;;;;;8.57;2.80;;;;;;;;;;5094743;28;20063;-28
2024/01/12 05:34:37;;;;;;;17.47;3.10;;;;;;;;;;5095172;28;20095;-27
2024/01/12 05:37:02;;;;;;;8.83;3.23;;;;;;;;;;5094645;28;20311;-27
2024/01/12 05:39:27;;;;;;;12.52;2.85;;;;;;;;;;5094945;28;20274;-27
2024/01/12 05:41:52;;;;;;;7.30;2.70;;;;;;;;;;5094348;28;20016;-28
2024/01/12 05:44:18;;;;;;;12.95;2.85;;;;;;;;;;5094747;28;20749;-27
2024/01/12 05:46:43;;;;;;;10.93;3.00;;;;;;;;;;5094456;28;20031;-27
2024/01/12 05:49:08;;;;;;;9.43;3.03;;;;;;;;;;5094969;28;20098;-28
2024/01/12 05:51:33;;;;;;;14.00;3.55;;;;;;;;;;5094441;28;20250;-27
2024/01/12 05:53:58;;;;;;;10.55;3.42;;;;;;;;;;5094261;28;20031;-27
2024/01/12 05:56:24;;;;;;;15.38;2.90;;;;;;;;;;5094382;28;20544;-28
2024/01/12 05:58:50;;;;;;;10.07;3.10;;;;;;;;;;5094140;28;20020;-28
2024/01/12 06:01:15;;;;;;;8.00;2.85;;;;;;;;;;5094408;28;20250;-27
2024/01/12 06:03:41;;;;;;;9.52;2.90;;;;;;;;;;5094261;28;20459;-28
2024/01/12 06:06:06;;;;;;;8.07;2.60;;;;;;;;;;5094133;28;20071;-27
2024/01/12 06:08:31;;;;;;;14.45;2.90;;;;;;;;;;5075900;28;20270;-27
2024/01/12 06:10:56;;;;;;;9.18;3.13;;;;;;;;;;5094204;28;20066;-27
2024/01/12 06:13:21;;;;;;;11.73;3.13;;;;;;;;;;5093980;28;20455;-28
2024/01/12 06:15:46;;;;;;;14.23;3.13;;;;;;;;;;5093863;28;20281;-28
2024/01/12 06:18:12;;;;;;;11.83;4.10;;;;;;;;;;5094536;28;20246;-27
2024/01/12 06:20:37;;;;;;;9.80;3.30;;;;;;;;;;5093836;28;20294;-27
2024/01/12 06:23:02;;;;;;;10.82;3.20;;;;;;;;;;5094106;28;20016;-27
2024/01/12 06:25:29;;;;;;;9.30;3.13;;;;;;;;;;5094337;28;20444;-28
2024/01/12 06:27:55;;;;;;;9.52;2.90;;;;;;;;;;5094072;28;20028;-27
2024/01/12 06:30:20;;;;;;;10.25;3.25;;;;;;;;;;5093778;28;20409;-27
2024/01/12 06:32:45;;;;;;;15.75;3.38;;;;;;;;;;5094255;28;20104;-27
2024/01/12 06:35:11;;;;;;;12.05;3.20;;;;;;;;;;5093607;28;20056;-27
2024/01/12 06:37:36;;;;;;;10.40;3.30;;;;;;;;;;5093925;28;20023;-28
2024/01/12 06:40:02;;;;;;;18.58;3.83;;;;;;;;;;5093612;28;20092;-27
2024/01/12 06:42:30;;;;;;;7.82;3.75;;;;;;;;;;5093770;28;20031;-28
2024/01/12 06:44:56;;;;;;;16.13;4.60;;;;;;;;;;5093701;28;20387;-28
2024/01/12 06:47:21;;;;;;;11.18;3.80;;;;;;;;;;5094088;28;20031;-27
2024/01/12 06:49:46;;;;;;;15.37;5.37;;;;;;;;;;5094415;28;20456;-27
2024/01/12 06:52:11;;;;;;;18.70;5.72;;;;;;;;;;5093510;28;20242;-27
2024/01/12 06:54:37;;;;;;;12.35;5.32;;;;;;;;;;5093478;28;20064;-28
2024/01/12 06:57:02;;;;;;;13.45;4.63;;;;;;;;;;5093224;28;20020;-28
2024/01/12 06:59:27;;;;;;;17.52;4.47;;;;;;;;;;5075074;28;20020;-28
2024/01/12 07:01:52;;;;;;;11.73;4.47;;;;;;;;;;5093541;28;20025;-27
2024/01/12 07:04:18;;;;;;;11.47;3.77;;;;;;;;;;5093236;28;20713;-27
2024/01/12 07:06:43;;;;;;;12.50;3.40;;;;;;;;;;5093030;28;20392;-27
2024/01/12 07:09:12;;;;;;;12.77;4.30;;;;;;;;;;5093455;28;20254;-27
2024/01/12 07:11:43;;;;;;;10.60;3.92;;;;;;;;;;5093489;28;20016;-28
2024/01/12 07:14:09;;;;;;;8.02;3.70;;;;;;;;;;5093298;28;20019;-27
2024/01/12 07:16:34;;;;;;;12.07;3.63;;;;;;;;;;5093074;28;20463;-27
2024/01/12 07:19:00;;;;;;;6.82;3.28;;;;;;;;;;5093522;28;20020;-28
2024/01/12 07:21:25;;;;;;;12.70;3.60;;;;;;;;;;5093047;28;20504;-27
2024/01/12 07:23:50;;;;;;;13.80;3.80;;;;;;;;;;5093518;28;20258;-27
2024/01/12 07:26:15;;;;;;;13.00;4.10;;;;;;;;;;5093020;28;20744;-27
2024/01/12 07:28:40;;;;;;;11.95;3.88;;;;;;;;;;5092908;28;20258;-28
2024/01/12 07:31:05;;;;;;;11.00;3.75;;;;;;;;;;5093249;28;20378;-28
2024/01/12 07:33:31;;;;;;;10.85;3.95;;;;;;;;;;5093285;28;20362;-28
2024/01/12 07:35:56;;;;;;;9.87;3.87;;;;;;;;;;5093336;28;20016;-28
2024/01/12 07:38:21;;;;;;;10.35;3.83;;;;;;;;;;5092488;28;20311;-28
2024/01/12 07:40:46;;;;;;;14.18;4.60;;;;;;;;;;5092817;28;20020;-28
2024/01/12 07:43:12;;;;;;;12.35;4.32;;;;;;;;;;5093295;28;20409;-28
2024/01/12 07:45:37;;;;;;;10.82;3.70;;;;;;;;;;5093524;28;20070;-28
2024/01/12 07:48:02;;;;;;;9.63;3.90;;;;;;;;;;5092957;28;20525;-28
2024/01/12 07:50:27;;;;;;;10.68;3.92;;;;;;;;;;5093329;28;20250;-28
2024/01/12 07:52:52;;;;;;;20.03;4.17;;;;;;;;;;5093118;28;20020;-28
2024/01/12 07:55:18;;;;;;;16.23;4.18;;;;;;;;;;5092542;28;20323;-28
2024/01/12 07:57:43;;;;;;;16.57;4.03;;;;;;;;;;5093192;28;20016;-28
2024/01/12 08:00:08;;;;;;;12.75;4.10;;;;;;;;;;5092788;28;20246;-28
2024/01/12 08:02:34;;;;;;;14.27;4.35;;;;;;;;;;5092446;28;20036;-28
2024/01/12 08:04:59;;;;;;;17.90;4.30;;;;;;;;;;5094137;28;20043;-29
2024/01/12 08:07:24;;;;;;;15.97;4.80;;;;;;;;;;5096792;28;20258;-28
2024/01/12 08:09:49;;;;;;;12.07;4.50;;;;;;;;;;5096178;28;20365;-28
2024/01/12 08:12:14;;;;;;;19.73;6.00;;;;;;;;;;5096704;28;20020;-28
2024/01/12 08:14:40;;;;;;;16.30;4.88;;;;;;;;;;5096114;28;20791;-28
2024/01/12 08:17:05;;;;;;;12.83;4.60;;;;;;;;;;5096417;28;20028;-28
2024/01/12 08:19:30;;;;;;;13.77;4.60;;;;;;;;;;5095982;28;20652;-28
2024/01/12 08:21:55;;;;;;;14.38;4.88;;;;;;;;;;5095913;28;20293;-28
2024/01/12 08:24:20;;;;;;;16.67;5.27;;;;;;;;;;5095992;28;20026;-28
2024/01/12 08:26:45;;;;;;;14.97;5.03;;;;;;;;;;5096002;28;20254;-28
2024/01/12 08:29:11;;;;;;;13.70;4.60;;;;;;;;;;5096022;28;20246;-28
2024/01/12 08:31:36;;;;;;;14.45;5.32;;;;;;;;;;5096024;28;20736;-28
2024/01/12 08:34:01;;;;;;;13.82;5.07;;;;;;;;;;5095874;28;20024;-29
2024/01/12 08:36:26;;;;;;;11.90;4.88;;;;;;;;;;5095879;28;20096;-27
2024/01/12 08:38:51;;;;;;;15.00;5.28;;;;;;;;;;5095864;28;20023;-28
2024/01/12 08:41:17;;;;;;;14.55;4.95;;;;;;;;;;5096184;28;20019;-28
2024/01/12 08:43:42;;;;;;;16.17;4.65;;;;;;;;;;5095717;28;20023;-28
2024/01/12 08:46:08;;;;;;;20.93;5.50;;;;;;;;;;5095597;28;20031;-27
2024/01/12 08:48:33;;;;;;;17.52;6.03;;;;;;;;;;5095556;28;20246;-28
2024/01/12 08:50:59;;;;;;;17.08;4.60;;;;;;;;;;5095482;28;20016;-28
2024/01/12 08:53:24;;;;;;;17.80;4.30;;;;;;;;;;5095459;28;20023;-28
2024/01/12 08:55:49;;;;;;;18.50;4.10;;;;;;;;;;5095914;28;20327;-28
2024/01/12 08:58:14;;;;;;;11.33;4.30;;;;;;;;;;5095936;28;20294;-28
2024/01/12 09:00:40;;;;;;;18.67;4.32;;;;;;;;;;5095632;28;20713;-28
2024/01/12 09:03:05;;;;;;;14.77;4.97;;;;;;;;;;5095311;28;20012;-28
2024/01/12 09:05:31;;;;;;;19.25;5.20;;;;;;;;;;5095158;28;20297;-28
2024/01/12 09:07:56;;;;;;;19.80;4.82;;;;;;;;;;5095123;28;20016;-28
2024/01/12 09:10:21;;;;;;;15.90;5.30;;;;;;;;;;5095697;28;20043;-28
2024/01/12 09:12:46;;;;;;;22.33;4.63;;;;;;;;;;5095554;28;20265;-28
2024/01/12 09:15:11;;;;;;;17.10;4.20;;;;;;;;;;5076776;28;20377;-28
2024/01/12 09:17:37;;;;;;;19.90;4.57;;;;;;;;;;5094194;28;20265;-27
2024/01/12 09:20:02;;;;;;;17.30;4.30;;;;;;;;;;5094947;28;20490;-28
2024/01/12 09:22:27;;;;;;;21.13;4.20;;;;;;;;;;5095372;28;20016;-28
2024/01/12 09:24:52;;;;;;;15.90;3.92;;;;;;;;;;5094814;28;20023;-28
2024/01/12 09:27:18;;;;;;;20.38;4.30;;;;;;;;;;5095343;28;20084;-28
2024/01/12 09:29:43;;;;;;;15.77;3.53;;;;;;;;;;5095169;28;20043;-27
2024/01/12 09:32:08;;;;;;;17.23;3.78;;;;;;;;;;5094977;28;20266;-28
2024/01/12 09:34:33;;;;;;;15.93;4.43;;;;;;;;;;5095005;28;20086;-28
2024/01/12 09:36:58;;;;;;;17.50;4.87;;;;;;;;;;5094971;28;20018;-28
2024/01/12 09:39:24;;;;;;;17.23;4.53;;;;;;;;;;5094577;28;20255;-28
2024/01/12 09:41:54;;;;;;;20.13;4.80;;;;;;;;;;5094851;28;20258;-28
2024/01/12 09:44:20;;;;;;;19.23;4.10;;;;;;;;;;5094896;28;20099;-28
2024/01/12 09:46:53;;;;;;;16.88;4.03;;;;;;;;;;5094766;28;20030;-28
2024/01/12 09:49:18;;;;;;;12.13;3.83;;;;;;;;;;5094440;28;20016;-27
2024/01/12 09:51:43;;;;;;;12.35;3.38;;;;;;;;;;5094055;28;20046;-27
2024/01/12 09:54:08;;;;;;;18.70;3.58;;;;;;;;;;5094557;28;20024;-27
2024/01/12 09:56:34;;;;;;;15.55;3.78;;;;;;;;;;5094411;28;20047;-28
2024/01/12 09:58:59;;;;;;;16.70;3.53;;;;;;;;;;5094540;28;20039;-28
2024/01/12 10:01:25;;;;;;;11.82;3.38;;;;;;;;;;5094188;28;20024;-28
2024/01/12 10:03:50;;;;;;;10.82;2.95;;;;;;;;;;5094037;28;20016;-28
2024/01/12 10:06:15;;;;;;;16.20;3.40;;;;;;;;;;5094001;28;20089;-28
2024/01/12 10:08:40;;;;;;;10.60;2.90;;;;;;;;;;5094270;28;20102;-28
2024/01/12 10:11:05;;;;;;;13.07;3.40;;;;;;;;;;5094424;28;20054;-28
2024/01/12 10:13:31;;;;;;;15.15;3.47;;;;;;;;;;5094434;28;20247;-29
2024/01/12 10:15:56;;;;;;;12.80;2.70;;;;;;;;;;5094280;28;20020;-27
2024/01/12 10:18:22;;;;;;;13.23;2.72;;;;;;;;;;5094373;28;20448;-27
2024/01/12 10:20:48;;;;;;;21.13;3.53;;;;;;;;;;5093711;28;20102;-27
2024/01/12 10:23:18;;;;;;;21.58;3.38;;;;;;;;;;5094052;28;20254;-27
2024/01/12 10:25:44;;;;;;;13.75;2.40;;;;;;;;;;5093787;28;20031;-27
2024/01/12 10:28:16;;;;;;;12.43;2.30;;;;;;;;;;5093340;28;20024;-27
2024/01/12 10:30:42;;;;;;;15.60;2.25;;;;;;;;;;5093603;28;20027;-27
2024/01/12 10:33:07;;;;;;;18.27;2.42;;;;;;;;;;5093675;28;20032;-27
2024/01/12 10:35:32;;;;;;;12.30;2.45;;;;;;;;;;5093591;28;20056;-27
2024/01/12 10:38:00;;;;;;;12.13;2.30;;;;;;;;;;5093652;28;20434;-27
2024/01/12 10:40:26;;;;;;;17.85;2.30;;;;;;;;;;5093592;28;20020;-27
2024/01/12 10:42:52;;;;;;;11.57;2.70;;;;;;;;;;5093976;28;20484;-28
2024/01/12 10:45:20;;;;;;;17.30;2.92;;;;;;;;;;5093788;28;20039;-27
2024/01/12 10:47:47;;;;;;;12.52;2.30;;;;;;;;;;5093835;28;20541;-27
2024/01/12 10:50:15;;;;;;;13.57;2.60;;;;;;;;;;5093539;28;20103;-27
2024/01/12 10:52:53;;;;;;;14.20;2.72;;;;;;;;;;5093650;28;20123;-28
2024/01/12 10:55:21;;;;;;;11.55;2.40;;;;;;;;;;5093453;28;20375;-27
2024/01/12 10:57:46;;;;;;;11.40;2.20;;;;;;;;;;5093502;28;20016;-28
2024/01/12 11:00:14;;;;;;;18.58;2.35;;;;;;;;;;5093325;28;20057;-27
2024/01/12 11:02:39;;;;;;;11.98;2.95;;;;;;;;;;5093611;28;20454;-27
2024/01/12 11:05:07;;;;;;;13.65;2.30;;;;;;;;;;5093363;28;20048;-27
2024/01/12 11:07:33;;;;;;;14.48;2.53;;;;;;;;;;5075290;28;20439;-27
2024/01/12 11:09:59;;;;;;;9.40;2.28;;;;;;;;;;5093200;28;20364;-27
2024/01/12 11:12:24;;;;;;;9.45;2.03;;;;;;;;;;5093110;28;20027;-27
2024/01/12 11:14:50;;;;;;;15.05;2.45;;;;;;;;;;5093288;28;20032;-27
2024/01/12 11:17:15;;;;;;;7.53;1.90;;;;;;;;;;5093155;28;20329;-27
2024/01/12 11:19:40;;;;;;;9.57;2.07;;;;;;;;;;5093128;28;20050;-27
2024/01/12 11:22:06;;;;;;;14.13;2.33;;;;;;;;;;5093176;28;20250;-27
2024/01/12 11:24:31;;;;;;;11.68;1.48;;;;;;;;;;5093127;28;20016;-27
2024/01/12 11:26:57;;;;;;;9.57;1.50;;;;;;;;;;5093134;28;20023;-27
2024/01/12 11:29:27;;;;;;;6.65;1.67;;;;;;;;;;5093381;28;20145;-27
2024/01/12 11:31:54;;;;;;;6.63;1.40;;;;;;;;;;5092979;28;20478;-27
2024/01/12 11:34:19;;;;;;;14.93;2.08;;;;;;;;;;5093255;28;20032;-28
2024/01/12 11:36:44;;;;;;;8.17;1.77;;;;;;;;;;5093057;28;20016;-27
2024/01/12 11:39:12;;;;;;;9.27;1.70;;;;;;;;;;5093767;28;20332;-27
2024/01/12 11:41:42;;;;;;;11.43;1.90;;;;;;;;;;5097260;28;20023;-27
2024/01/12 11:44:07;;;;;;;14.23;1.92;;;;;;;;;;5097153;28;20102;-27
2024/01/12 11:46:33;;;;;;;10.83;1.53;;;;;;;;;;5096812;28;20094;-27
2024/01/12 11:48:58;;;;;;;9.00;1.53;;;;;;;;;;5096720;28;20250;-28
2024/01/12 11:51:23;;;;;;;6.00;1.70;;;;;;;;;;5096735;28;20254;-27
2024/01/12 11:53:49;;;;;;;11.85;2.28;;;;;;;;;;5096834;28;20278;-27
2024/01/12 11:56:15;;;;;;;13.10;2.00;;;;;;;;;;5097088;28;20024;-27
2024/01/12 11:58:40;;;;;;;13.27;2.13;;;;;;;;;;5096749;28;20490;-27
2024/01/12 12:01:07;;;;;;;12.43;1.73;;;;;;;;;;5097009;28;20012;-27
2024/01/12 12:03:32;;;;;;;9.07;1.70;;;;;;;;;;5096759;28;20725;-27
2024/01/12 12:05:58;;;;;;;12.10;2.00;;;;;;;;;;5096029;28;20161;-27
2024/01/12 12:08:23;;;;;;;11.33;1.63;;;;;;;;;;5096521;28;20275;-27
2024/01/12 12:10:48;;;;;;;12.32;1.48;;;;;;;;;;5096396;28;20286;-28
2024/01/12 12:13:14;;;;;;;9.02;1.67;;;;;;;;;;5078463;28;20139;-27
2024/01/12 12:15:39;;;;;;;10.70;1.60;;;;;;;;;;5096738;28;20111;-27
2024/01/12 12:18:06;;;;;;;9.77;1.50;;;;;;;;;;5096244;28;20265;-27
2024/01/12 12:20:31;;;;;;;5.25;1.30;;;;;;;;;;5096123;28;20020;-27
2024/01/12 12:22:56;;;;;;;8.50;1.30;;;;;;;;;;5096387;28;20035;-27
2024/01/12 12:25:21;;;;;;;8.18;1.95;;;;;;;;;;5096120;28;20020;-27
2024/01/12 12:27:46;;;;;;;8.95;1.60;;;;;;;;;;5095313;28;20027;-27
2024/01/12 12:30:13;;;;;;;12.82;1.80;;;;;;;;;;5096482;28;20038;-27
2024/01/12 12:32:41;;;;;;;8.35;1.67;;;;;;;;;;5096168;28;20016;-27
2024/01/12 12:35:17;;;;;;;4.40;1.20;;;;;;;;;;5096400;28;20108;-27
2024/01/12 12:37:42;;;;;;;8.27;1.85;;;;;;;;;;5096132;28;20095;-27
2024/01/12 12:40:09;;;;;;;8.48;1.77;;;;;;;;;;5095248;28;20043;-27
2024/01/12 12:42:34;;;;;;;10.35;1.88;;;;;;;;;;5095402;28;20126;-27
2024/01/12 12:44:59;;;;;;;9.60;1.45;;;;;;;;;;5096031;28;20095;-28
2024/01/12 12:47:24;;;;;;;7.85;1.52;;;;;;;;;;5095661;28;20158;-27
2024/01/12 12:49:50;;;;;;;12.32;3.17;;;;;;;;;;5095697;28;20030;-27
2024/01/12 12:52:16;;;;;;;9.50;1.70;;;;;;;;;;5095535;28;20035;-27
2024/01/12 12:54:41;;;;;;;8.25;1.73;;;;;;;;;;5095416;28;20395;-27
2024/01/12 12:57:06;;;;;;;5.53;1.50;;;;;;;;;;5095487;28;20016;-27
2024/01/12 12:59:37;;;;;;;12.73;1.70;;;;;;;;;;5095493;28;20246;-27
2024/01/12 13:02:02;;;;;;;6.47;1.80;;;;;;;;;;5095526;28;20016;-28
2024/01/12 13:04:28;;;;;;;8.05;1.70;;;;;;;;;;5095313;28;20055;-27
2024/01/12 13:06:53;;;;;;;7.88;1.60;;;;;;;;;;5095201;28;20048;-27
2024/01/12 13:09:18;;;;;;;10.05;1.60;;;;;;;;;;5095265;28;20026;-27
2024/01/12 13:11:43;;;;;;;11.10;1.90;;;;;;;;;;5095097;28;20040;-27
2024/01/12 13:14:09;;;;;;;11.27;1.65;;;;;;;;;;5095343;28;20103;-28
2024/01/12 13:16:38;;;;;;;10.40;1.92;;;;;;;;;;5095276;28;20020;-27
2024/01/12 13:19:03;;;;;;;13.43;2.08;;;;;;;;;;5095512;28;20028;-28
2024/01/12 13:21:29;;;;;;;7.00;1.60;;;;;;;;;;5094428;28;20432;-27
2024/01/12 13:23:54;;;;;;;7.78;1.98;;;;;;;;;;5093134;28;20406;-28
2024/01/12 13:26:21;;;;;;;8.10;1.90;;;;;;;;;;5094107;28;20455;-27
2024/01/12 13:28:47;;;;;;;8.10;1.77;;;;;;;;;;5094317;28;20078;-27
2024/01/12 13:31:12;;;;;;;8.82;1.73;;;;;;;;;;5093940;28;20401;-28
2024/01/12 13:33:37;;;;;;;7.27;2.20;;;;;;;;;;5093361;28;20107;-27
2024/01/12 13:36:02;;;;;;;11.02;1.95;;;;;;;;;;5092555;28;20775;-28
2024/01/12 13:38:28;;;;;;;7.82;1.80;;;;;;;;;;5094812;28;20020;-27
2024/01/12 13:40:56;;;;;;;5.63;1.60;;;;;;;;;;5094727;28;20082;-28
2024/01/12 13:43:21;;;;;;;8.48;1.63;;;;;;;;;;5094527;28;20262;-27
2024/01/12 13:45:46;;;;;;;5.20;1.27;;;;;;;;;;5094582;28;20031;-27
2024/01/12 13:48:12;;;;;;;8.85;1.75;;;;;;;;;;5094692;28;20733;-27
2024/01/12 13:50:37;;;;;;;15.57;1.80;;;;;;;;;;5094345;28;20020;-27
2024/01/12 13:53:03;;;;;;;9.67;2.27;;;;;;;;;;5094389;28;20035;-27
2024/01/12 13:55:28;;;;;;;4.05;1.50;;;;;;;;;;5094497;28;20270;-27
2024/01/12 13:57:53;;;;;;;10.27;1.50;;;;;;;;;;5094890;28;20020;-27
2024/01/12 14:00:19;;;;;;;4.73;1.33;;;;;;;;;;5094162;28;20399;-27
2024/01/12 14:02:44;;;;;;;7.15;1.40;;;;;;;;;;5093646;28;20280;-27
2024/01/12 14:05:10;;;;;;;8.38;1.73;;;;;;;;;;5094191;28;20463;-27
2024/01/12 14:07:36;;;;;;;9.18;2.03;;;;;;;;;;5094109;28;20035;-27
2024/01/12 14:10:02;;;;;;;6.35;2.05;;;;;;;;;;5093910;28;20016;-27
2024/01/12 14:12:29;;;;;;;7.53;2.08;;;;;;;;;;5075602;28;20024;-27
2024/01/12 14:14:54;;;;;;;5.28;2.35;;;;;;;;;;5094060;28;20024;-27
2024/01/12 14:17:19;;;;;;;4.75;1.83;;;;;;;;;;5075720;28;20061;-27
2024/01/12 14:19:45;;;;;;;6.85;1.55;;;;;;;;;;5093935;28;20020;-27
2024/01/12 14:22:11;;;;;;;7.33;1.50;;;;;;;;;;5093793;28;20062;-27